createdAt,value
2018-12-01T00:00:19.339Z,24.00
2018-12-01T00:01:19.327Z,24.00
2018-12-01T00:02:19.316Z,24.00
2018-12-01T00:03:19.304Z,24.00
2018-12-01T00:04:19.599Z,24.00
2018-12-01T00:05:19.430Z,24.00
2018-12-01T00:06:19.274Z,24.00
2018-12-01T00:07:19.263Z,24.00
2018-12-01T00:08:19.251Z,24.00
2018-12-01T00:09:19.241Z,24.00
2018-12-01T00:10:19.232Z,24.00
2018-12-01T00:11:19.656Z,24.00
2018-12-01T00:12:19.207Z,24.00
2018-12-01T00:13:19.200Z,24.00
2018-12-01T00:14:19.186Z,24.00
2018-12-01T00:15:19.176Z,24.00
2018-12-01T00:16:19.164Z,24.00
2018-12-01T00:17:19.267Z,24.00
2018-12-01T00:18:19.441Z,24.00
2018-12-01T00:19:19.133Z,24.00
2018-12-01T00:20:19.124Z,24.00
2018-12-01T00:21:19.117Z,24.00
2018-12-01T00:22:19.101Z,24.00
2018-12-01T00:23:20.196Z,24.00
2018-12-01T00:24:19.080Z,24.00
2018-12-01T00:25:19.461Z,24.00
2018-12-01T00:26:19.739Z,24.00
2018-12-01T00:27:19.048Z,24.00
2018-12-01T00:28:19.039Z,24.00
2018-12-01T00:29:19.215Z,24.00
2018-12-01T00:30:19.017Z,24.00
2018-12-01T00:31:19.008Z,24.00
2018-12-01T00:32:19.484Z,24.00
2018-12-01T00:33:18.987Z,24.00
2018-12-01T00:34:18.975Z,24.00
2018-12-01T00:35:19.076Z,24.00
2018-12-01T00:36:18.953Z,24.00
2018-12-01T00:37:18.942Z,24.00
2018-12-01T00:38:18.934Z,24.00
2018-12-01T00:39:19.302Z,24.00
2018-12-01T00:40:18.910Z,24.00
2018-12-01T00:41:19.048Z,24.00
2018-12-01T00:42:18.889Z,24.00
2018-12-01T00:43:18.879Z,24.00
2018-12-01T00:44:19.697Z,24.00
2018-12-01T00:45:18.859Z,24.00
2018-12-01T00:46:21.079Z,24.00
2018-12-01T00:47:18.949Z,24.00
2018-12-01T00:48:18.829Z,24.00
2018-12-01T00:49:18.814Z,24.00
2018-12-01T00:50:18.808Z,24.00
2018-12-01T00:51:18.795Z,24.00
2018-12-01T00:52:18.783Z,24.00
2018-12-01T00:53:19.486Z,24.00
2018-12-01T00:54:18.761Z,24.00
2018-12-01T00:55:18.751Z,24.00
2018-12-01T00:56:18.744Z,24.00
2018-12-01T00:57:18.731Z,24.00
2018-12-01T00:58:18.718Z,24.00
2018-12-01T00:59:18.841Z,24.00
2018-12-01T01:00:19.063Z,16.00
2018-12-01T01:01:18.687Z,16.00
2018-12-01T01:02:18.678Z,16.00
2018-12-01T01:03:18.681Z,16.00
2018-12-01T01:04:18.656Z,16.00
2018-12-01T01:05:18.758Z,16.00
2018-12-01T01:06:18.634Z,16.00
2018-12-01T01:07:19.087Z,16.00
2018-12-01T01:08:18.613Z,16.00
2018-12-01T01:09:18.601Z,20.00
2018-12-01T01:10:18.612Z,20.00
2018-12-01T01:11:18.699Z,20.00
2018-12-01T01:12:18.573Z,16.00
2018-12-01T01:13:18.560Z,20.00
2018-12-01T01:14:18.910Z,20.00
2018-12-01T01:15:18.558Z,20.00
2018-12-01T01:16:18.528Z,20.00
2018-12-01T01:17:18.910Z,20.00
2018-12-01T01:18:18.510Z,20.00
2018-12-01T01:19:18.496Z,20.00
2018-12-01T01:20:18.486Z,20.00
2018-12-01T01:21:18.928Z,20.00
2018-12-01T01:22:18.467Z,20.00
2018-12-01T01:23:19.009Z,20.00
2018-12-01T01:24:18.444Z,20.00
2018-12-01T01:25:18.434Z,20.00
2018-12-01T01:26:18.596Z,20.00
2018-12-01T01:27:18.413Z,20.00
2018-12-01T01:28:18.747Z,20.00
2018-12-01T01:29:18.430Z,20.00
2018-12-01T01:30:18.387Z,20.00
2018-12-01T01:31:18.371Z,20.00
2018-12-01T01:32:18.360Z,20.00
2018-12-01T01:33:18.352Z,20.00
2018-12-01T01:34:18.339Z,20.00
2018-12-01T01:35:19.845Z,20.00
2018-12-01T01:36:18.319Z,20.00
2018-12-01T01:37:18.308Z,20.00
2018-12-01T01:38:18.298Z,20.00
2018-12-01T01:39:18.292Z,20.00
2018-12-01T01:40:18.286Z,20.00
2018-12-01T01:41:18.306Z,20.00
2018-12-01T01:42:18.597Z,20.00
2018-12-01T01:43:18.245Z,20.00
2018-12-01T01:44:18.236Z,20.00
2018-12-01T01:45:18.225Z,16.00
2018-12-01T01:46:18.214Z,20.00
2018-12-01T01:47:18.244Z,20.00
2018-12-01T01:48:18.193Z,16.00
2018-12-01T01:49:18.620Z,20.00
2018-12-01T01:50:18.171Z,20.00
2018-12-01T01:51:18.162Z,20.00
2018-12-01T01:52:18.156Z,20.00
2018-12-01T01:53:18.205Z,20.00
2018-12-01T01:54:18.724Z,20.00
2018-12-01T01:55:18.119Z,20.00
2018-12-01T01:56:18.447Z,20.00
2018-12-01T01:57:18.099Z,20.00
2018-12-01T01:58:18.089Z,20.00
2018-12-01T01:59:18.121Z,20.00
2018-12-01T02:00:18.067Z,20.00
2018-12-01T02:01:18.057Z,20.00
2018-12-01T02:02:18.048Z,20.00
2018-12-01T02:03:18.467Z,20.00
2018-12-01T02:04:18.025Z,20.00
2018-12-01T02:05:18.055Z,20.00
2018-12-01T02:06:18.006Z,20.00
2018-12-01T02:07:17.993Z,20.00
2018-12-01T02:08:17.984Z,20.00
2018-12-01T02:09:17.972Z,20.00
2018-12-01T02:10:18.294Z,20.00
2018-12-01T02:11:18.257Z,20.00
2018-12-01T02:12:17.941Z,20.00
2018-12-01T02:13:17.932Z,20.00
2018-12-01T02:14:18.721Z,20.00
2018-12-01T02:15:17.909Z,20.00
2018-12-01T02:16:17.899Z,20.00
2018-12-01T02:17:18.347Z,20.00
2018-12-01T02:18:17.880Z,20.00
2018-12-01T02:19:17.869Z,20.00
2018-12-01T02:20:17.857Z,20.00
2018-12-01T02:21:17.846Z,20.00
2018-12-01T02:22:17.838Z,20.00
2018-12-01T02:23:17.866Z,20.00
2018-12-01T02:24:18.132Z,20.00
2018-12-01T02:25:17.811Z,20.00
2018-12-01T02:26:17.794Z,20.00
2018-12-01T02:27:17.783Z,20.00
2018-12-01T02:28:17.773Z,20.00
2018-12-01T02:29:18.077Z,20.00
2018-12-01T02:30:17.752Z,20.00
2018-12-01T02:31:17.743Z,20.00
2018-12-01T02:32:17.733Z,20.00
2018-12-01T02:33:17.722Z,20.00
2018-12-01T02:34:17.711Z,20.00
2018-12-01T02:35:17.744Z,20.00
2018-12-01T02:36:17.694Z,20.00
2018-12-01T02:37:18.150Z,20.00
2018-12-01T02:38:17.669Z,20.00
2018-12-01T02:39:17.665Z,20.00
2018-12-01T02:40:17.648Z,20.00
2018-12-01T02:41:17.687Z,20.00
2018-12-01T02:42:17.628Z,16.00
2018-12-01T02:43:17.618Z,20.00
2018-12-01T02:44:17.962Z,20.00
2018-12-01T02:45:17.603Z,20.00
2018-12-01T02:46:17.585Z,20.00
2018-12-01T02:47:17.784Z,20.00
2018-12-01T02:48:17.564Z,16.00
2018-12-01T02:49:17.554Z,20.00
2018-12-01T02:50:17.545Z,20.00
2018-12-01T02:51:17.989Z,20.00
2018-12-01T02:52:17.522Z,20.00
2018-12-01T02:53:17.550Z,20.00
2018-12-01T02:54:17.504Z,20.00
2018-12-01T02:55:17.492Z,20.00
2018-12-01T02:56:17.481Z,20.00
2018-12-01T02:57:17.478Z,20.00
2018-12-01T02:58:18.833Z,20.00
2018-12-01T02:59:17.487Z,20.00
2018-12-01T03:01:39.114Z,20.00
2018-12-01T03:02:39.043Z,20.00
2018-12-01T03:03:39.029Z,20.00
2018-12-01T03:04:39.021Z,20.00
2018-12-01T03:05:39.011Z,20.00
2018-12-01T03:06:39.000Z,20.00
2018-12-01T03:07:40.510Z,20.00
2018-12-01T03:08:38.980Z,20.00
2018-12-01T03:09:38.969Z,20.00
2018-12-01T03:10:38.960Z,20.00
2018-12-01T03:11:38.952Z,20.00
2018-12-01T03:12:38.941Z,20.00
2018-12-01T03:13:38.969Z,16.00
2018-12-01T03:14:40.813Z,16.00
2018-12-01T03:15:38.906Z,20.00
2018-12-01T03:16:39.850Z,20.00
2018-12-01T03:17:38.885Z,20.00
2018-12-01T03:18:38.885Z,20.00
2018-12-01T03:19:40.234Z,20.00
2018-12-01T03:20:38.854Z,20.00
2018-12-01T03:21:39.137Z,20.00
2018-12-01T03:22:38.836Z,20.00
2018-12-01T03:23:38.825Z,20.00
2018-12-01T03:24:38.812Z,20.00
2018-12-01T03:25:38.842Z,20.00
2018-12-01T03:26:39.196Z,20.00
2018-12-01T03:27:38.784Z,20.00
2018-12-01T03:28:38.776Z,20.00
2018-12-01T03:29:38.760Z,20.00
2018-12-01T03:30:38.754Z,20.00
2018-12-01T03:31:38.782Z,20.00
2018-12-01T03:32:38.732Z,20.00
2018-12-01T03:33:39.221Z,20.00
2018-12-01T03:34:38.711Z,20.00
2018-12-01T03:35:38.697Z,20.00
2018-12-01T03:36:38.691Z,20.00
2018-12-01T03:37:38.744Z,20.00
2018-12-01T03:38:38.669Z,20.00
2018-12-01T03:39:38.660Z,20.00
2018-12-01T03:40:39.038Z,20.00
2018-12-01T03:41:38.639Z,20.00
2018-12-01T03:42:38.657Z,20.00
2018-12-01T03:43:38.657Z,20.00
2018-12-01T03:44:38.609Z,20.00
2018-12-01T03:45:38.604Z,20.00
2018-12-01T03:46:38.583Z,20.00
2018-12-01T03:47:39.062Z,20.00
2018-12-01T03:48:38.564Z,20.00
2018-12-01T03:49:38.595Z,20.00
2018-12-01T03:50:38.547Z,20.00
2018-12-01T03:51:38.537Z,20.00
2018-12-01T03:52:38.547Z,20.00
2018-12-01T03:53:38.620Z,20.00
2018-12-01T03:54:39.905Z,20.00
2018-12-01T03:55:38.545Z,20.00
2018-12-01T03:56:38.479Z,20.00
2018-12-01T03:57:38.481Z,20.00
2018-12-01T03:58:38.459Z,20.00
2018-12-01T03:59:38.453Z,20.00
2018-12-01T04:00:38.443Z,24.00
2018-12-01T04:01:38.471Z,24.00
2018-12-01T04:02:38.416Z,24.00
2018-12-01T04:03:38.498Z,24.00
2018-12-01T04:04:38.396Z,24.00
2018-12-01T04:05:38.385Z,24.00
2018-12-01T04:06:38.376Z,24.00
2018-12-01T04:07:38.727Z,24.00
2018-12-01T04:08:38.353Z,24.00
2018-12-01T04:09:39.338Z,24.00
2018-12-01T04:10:38.377Z,24.00
2018-12-01T04:11:38.323Z,24.00
2018-12-01T04:12:38.313Z,24.00
2018-12-01T04:13:38.361Z,24.00
2018-12-01T04:14:38.729Z,24.00
2018-12-01T04:15:38.283Z,24.00
2018-12-01T04:16:38.277Z,24.00
2018-12-01T04:17:38.263Z,24.00
2018-12-01T04:18:38.251Z,24.00
2018-12-01T04:19:38.430Z,24.00
2018-12-01T04:20:38.231Z,24.00
2018-12-01T04:21:38.532Z,24.00
2018-12-01T04:22:38.214Z,24.00
2018-12-01T04:23:38.201Z,24.00
2018-12-01T04:24:38.195Z,24.00
2018-12-01T04:25:38.222Z,24.00
2018-12-01T04:26:38.170Z,24.00
2018-12-01T04:27:38.159Z,24.00
2018-12-01T04:28:38.450Z,24.00
2018-12-01T04:29:38.141Z,24.00
2018-12-01T04:30:38.135Z,24.00
2018-12-01T04:31:38.179Z,24.00
2018-12-01T04:32:38.112Z,24.00
2018-12-01T04:33:38.096Z,24.00
2018-12-01T04:34:38.087Z,24.00
2018-12-01T04:35:38.475Z,24.00
2018-12-01T04:36:38.066Z,24.00
2018-12-01T04:37:38.098Z,24.00
2018-12-01T04:38:38.050Z,24.00
2018-12-01T04:39:38.035Z,24.00
2018-12-01T04:40:38.027Z,24.00
2018-12-01T04:41:38.018Z,24.00
2018-12-01T04:42:38.500Z,24.00
2018-12-01T04:43:38.033Z,24.00
2018-12-01T04:44:37.983Z,24.00
2018-12-01T04:45:37.974Z,24.00
2018-12-01T04:46:37.964Z,24.00
2018-12-01T04:47:37.952Z,24.00
2018-12-01T04:48:37.943Z,24.00
2018-12-01T04:49:39.378Z,24.00
2018-12-01T04:50:37.921Z,24.00
2018-12-01T04:51:37.911Z,24.00
2018-12-01T04:52:38.831Z,24.00
2018-12-01T04:53:37.889Z,24.00
2018-12-01T04:54:37.879Z,24.00
2018-12-01T04:55:37.944Z,24.00
2018-12-01T04:56:39.293Z,24.00
2018-12-01T04:57:37.854Z,24.00
2018-12-01T04:58:37.881Z,24.00
2018-12-01T04:59:37.879Z,24.00
2018-12-01T05:00:37.818Z,24.00
2018-12-01T05:01:37.877Z,24.00
2018-12-01T05:02:37.821Z,24.00
2018-12-01T05:03:38.163Z,24.00
2018-12-01T05:04:37.778Z,20.00
2018-12-01T05:05:37.860Z,20.00
2018-12-01T05:06:37.969Z,24.00
2018-12-01T05:07:38.077Z,24.00
2018-12-01T05:08:37.735Z,24.00
2018-12-01T05:09:37.725Z,20.00
2018-12-01T05:10:38.181Z,24.00
2018-12-01T05:11:37.704Z,24.00
2018-12-01T05:12:37.695Z,24.00
2018-12-01T05:13:37.808Z,24.00
2018-12-01T05:14:37.675Z,24.00
2018-12-01T05:15:37.661Z,24.00
2018-12-01T05:16:37.651Z,24.00
2018-12-01T05:17:38.531Z,24.00
2018-12-01T05:18:37.631Z,24.00
2018-12-01T05:19:37.690Z,24.00
2018-12-01T05:20:37.610Z,24.00
2018-12-01T05:21:37.602Z,24.00
2018-12-01T05:22:37.590Z,24.00
2018-12-01T05:23:37.580Z,24.00
2018-12-01T05:24:38.019Z,24.00
2018-12-01T05:25:37.672Z,24.00
2018-12-01T05:26:37.553Z,24.00
2018-12-01T05:27:37.549Z,24.00
2018-12-01T05:28:37.527Z,24.00
2018-12-01T05:29:37.523Z,24.00
2018-12-01T05:30:37.507Z,24.00
2018-12-01T05:31:37.748Z,24.00
2018-12-01T05:32:37.870Z,24.00
2018-12-01T05:33:37.480Z,24.00
2018-12-01T05:34:37.464Z,24.00
2018-12-01T05:35:37.457Z,24.00
2018-12-01T05:36:37.444Z,20.00
2018-12-01T05:37:37.580Z,20.00
2018-12-01T05:38:37.426Z,24.00
2018-12-01T05:39:37.413Z,20.00
2018-12-01T05:40:37.403Z,24.00
2018-12-01T05:41:37.394Z,24.00
2018-12-01T05:42:37.383Z,20.00
2018-12-01T05:43:37.517Z,24.00
2018-12-01T05:44:37.778Z,20.00
2018-12-01T05:45:37.405Z,24.00
2018-12-01T05:46:37.340Z,20.00
2018-12-01T05:47:37.331Z,24.00
2018-12-01T05:48:37.324Z,24.00
2018-12-01T05:49:37.648Z,24.00
2018-12-01T05:50:37.303Z,24.00
2018-12-01T05:51:37.290Z,20.00
2018-12-01T05:52:37.280Z,24.00
2018-12-01T05:53:37.276Z,24.00
2018-12-01T05:54:37.258Z,24.00
2018-12-01T05:55:37.289Z,24.00
2018-12-01T05:56:37.732Z,24.00
2018-12-01T05:57:37.252Z,24.00
2018-12-01T05:58:37.217Z,24.00
2018-12-01T05:59:37.209Z,24.00
2018-12-01T06:00:37.199Z,24.00
2018-12-01T06:01:37.226Z,24.00
2018-12-01T06:02:37.178Z,24.00
2018-12-01T06:03:37.542Z,24.00
2018-12-01T06:04:37.208Z,20.00
2018-12-01T06:05:37.146Z,24.00
2018-12-01T06:06:37.135Z,24.00
2018-12-01T06:07:37.447Z,24.00
2018-12-01T06:08:37.220Z,24.00
2018-12-01T06:09:37.103Z,24.00
2018-12-01T06:10:37.565Z,24.00
2018-12-01T06:11:37.084Z,24.00
2018-12-01T06:12:37.076Z,24.00
2018-12-01T06:13:37.980Z,24.00
2018-12-01T06:14:37.056Z,20.00
2018-12-01T06:15:37.071Z,20.00
2018-12-01T06:16:37.031Z,20.00
2018-12-01T06:17:39.422Z,20.00
2018-12-01T06:18:37.027Z,20.00
2018-12-01T06:19:37.113Z,20.00
2018-12-01T06:20:36.991Z,20.00
2018-12-01T06:21:36.981Z,20.00
2018-12-01T06:22:36.972Z,20.00
2018-12-01T06:23:36.963Z,20.00
2018-12-01T06:24:37.425Z,20.00
2018-12-01T06:25:37.330Z,20.00
2018-12-01T06:26:37.013Z,20.00
2018-12-01T06:27:36.969Z,20.00
2018-12-01T06:28:36.918Z,20.00
2018-12-01T06:29:36.920Z,20.00
2018-12-01T06:30:37.127Z,20.00
2018-12-01T06:31:37.021Z,20.00
2018-12-01T06:32:36.871Z,24.00
2018-12-01T06:33:36.891Z,24.00
2018-12-01T06:34:36.882Z,24.00
2018-12-01T06:35:36.836Z,24.00
2018-12-01T06:36:36.834Z,24.00
2018-12-01T06:37:39.488Z,24.00
2018-12-01T06:38:36.810Z,24.00
2018-12-01T06:39:36.905Z,24.00
2018-12-01T06:40:36.808Z,24.00
2018-12-01T06:41:36.806Z,24.00
2018-12-01T06:42:36.786Z,24.00
2018-12-01T06:43:36.899Z,28.00
2018-12-01T06:44:37.231Z,24.00
2018-12-01T06:45:36.820Z,28.00
2018-12-01T06:46:36.749Z,28.00
2018-12-01T06:47:36.717Z,28.00
2018-12-01T06:48:36.713Z,32.00
2018-12-01T06:49:36.834Z,32.00
2018-12-01T06:50:36.689Z,32.00
2018-12-01T06:51:37.036Z,32.00
2018-12-01T06:52:36.688Z,24.00
2018-12-01T06:53:36.663Z,24.00
2018-12-01T06:54:36.686Z,24.00
2018-12-01T06:55:36.767Z,32.00
2018-12-01T06:56:36.708Z,32.00
2018-12-01T06:57:36.665Z,32.00
2018-12-01T06:58:37.050Z,36.00
2018-12-01T06:59:36.623Z,32.00
2018-12-01T07:00:36.613Z,32.00
2018-12-01T07:01:36.947Z,28.00
2018-12-01T07:02:36.626Z,28.00
2018-12-01T07:03:36.577Z,36.00
2018-12-01T07:04:36.628Z,44.00
2018-12-01T07:05:38.952Z,52.00
2018-12-01T07:06:36.549Z,60.00
2018-12-01T07:07:36.634Z,64.00
2018-12-01T07:08:36.507Z,72.00
2018-12-01T07:09:36.521Z,84.00
2018-12-01T07:10:36.504Z,96.00
2018-12-01T07:11:36.476Z,104.00
2018-12-01T07:12:38.927Z,112.00
2018-12-01T07:13:36.611Z,112.00
2018-12-01T07:14:36.433Z,120.00
2018-12-01T07:15:36.457Z,120.00
2018-12-01T07:16:36.430Z,116.00
2018-12-01T07:17:36.433Z,116.00
2018-12-01T07:18:36.403Z,104.00
2018-12-01T07:19:36.869Z,96.00
2018-12-01T07:20:36.392Z,104.00
2018-12-01T07:21:37.323Z,120.00
2018-12-01T07:22:36.354Z,128.00
2018-12-01T07:23:36.415Z,136.00
2018-12-01T07:24:36.334Z,148.00
2018-12-01T07:25:36.415Z,128.00
2018-12-01T07:26:36.792Z,132.00
2018-12-01T07:27:36.313Z,124.00
2018-12-01T07:28:36.375Z,124.00
2018-12-01T07:29:36.299Z,152.00
2018-12-01T07:30:36.273Z,180.00
2018-12-01T07:31:36.403Z,208.00
2018-12-01T07:32:36.248Z,244.00
2018-12-01T07:33:36.638Z,280.00
2018-12-01T07:34:36.281Z,308.00
2018-12-01T07:35:36.292Z,308.00
2018-12-01T07:36:36.211Z,316.00
2018-12-01T07:37:36.692Z,320.00
2018-12-01T07:38:36.228Z,344.00
2018-12-01T07:39:36.239Z,352.00
2018-12-01T07:40:36.848Z,364.00
2018-12-01T07:41:36.178Z,372.00
2018-12-01T07:42:36.195Z,404.00
2018-12-01T07:43:36.538Z,388.00
2018-12-01T07:44:36.120Z,432.00
2018-12-01T07:45:36.115Z,484.00
2018-12-01T07:46:36.104Z,508.00
2018-12-01T07:47:36.430Z,540.00
2018-12-01T07:48:36.096Z,556.00
2018-12-01T07:49:36.150Z,612.00
2018-12-01T07:50:36.055Z,648.00
2018-12-01T07:51:36.816Z,712.00
2018-12-01T07:52:36.829Z,792.00
2018-12-01T07:53:36.026Z,860.00
2018-12-01T07:54:36.055Z,832.00
2018-12-01T07:55:36.269Z,832.00
2018-12-01T07:56:36.049Z,892.00
2018-12-01T07:57:35.985Z,964.00
2018-12-01T07:58:36.070Z,828.00
2018-12-01T07:59:36.389Z,856.00
2018-12-01T08:00:35.990Z,752.00
2018-12-01T08:01:37.779Z,624.00
2018-12-01T08:02:35.936Z,560.00
2018-12-01T08:03:35.998Z,560.00
2018-12-01T08:04:35.975Z,568.00
2018-12-01T08:05:36.810Z,564.00
2018-12-01T08:06:35.896Z,572.00
2018-12-01T08:07:36.022Z,564.00
2018-12-01T08:08:35.877Z,584.00
2018-12-01T08:09:36.770Z,632.00
2018-12-01T08:10:36.766Z,708.00
2018-12-01T08:11:36.157Z,812.00
2018-12-01T08:12:35.826Z,896.00
2018-12-01T08:13:36.377Z,920.00
2018-12-01T08:14:35.842Z,780.00
2018-12-01T08:15:35.828Z,752.00
2018-12-01T08:16:35.890Z,728.00
2018-12-01T08:17:35.789Z,760.00
2018-12-01T08:18:36.172Z,768.00
2018-12-01T08:19:36.113Z,732.00
2018-12-01T08:20:35.820Z,712.00
2018-12-01T08:21:35.880Z,712.00
2018-12-01T08:22:35.772Z,736.00
2018-12-01T08:23:35.842Z,760.00
2018-12-01T08:24:35.730Z,856.00
2018-12-01T08:25:35.834Z,996.00
2018-12-01T08:26:35.676Z,1072.00
2018-12-01T08:27:35.733Z,1144.00
2018-12-01T08:28:35.668Z,1252.00
2018-12-01T08:29:35.809Z,1468.00
2018-12-01T08:30:35.634Z,1868.00
2018-12-01T08:31:36.160Z,2268.00
2018-12-01T08:32:35.843Z,2352.00
2018-12-01T08:33:35.627Z,2592.00
2018-12-01T08:34:35.660Z,2988.00
2018-12-01T08:35:35.617Z,3120.00
2018-12-01T08:36:35.620Z,2892.00
2018-12-01T08:37:35.938Z,2616.00
2018-12-01T08:38:35.563Z,2604.00
2018-12-01T08:39:35.691Z,2832.00
2018-12-01T08:40:35.560Z,2552.00
2018-12-01T08:41:35.546Z,2392.00
2018-12-01T08:42:35.648Z,2600.00
2018-12-01T08:43:36.138Z,2548.00
2018-12-01T08:44:35.694Z,2256.00
2018-12-01T08:45:35.504Z,2084.00
2018-12-01T08:46:35.501Z,2016.00
2018-12-01T08:47:35.596Z,2076.00
2018-12-01T08:48:35.444Z,2228.00
2018-12-01T08:49:35.582Z,2444.00
2018-12-01T08:50:35.524Z,2468.00
2018-12-01T08:51:35.409Z,2792.00
2018-12-01T08:52:35.411Z,2960.00
2018-12-01T08:53:35.562Z,3020.00
2018-12-01T08:54:35.488Z,3096.00
2018-12-01T08:55:36.190Z,3168.00
2018-12-01T08:56:35.565Z,3136.00
2018-12-01T08:57:35.484Z,3144.00
2018-12-01T08:58:35.438Z,3188.00
2018-12-01T08:59:35.477Z,3224.00
2018-12-01T09:00:35.384Z,3272.00
2018-12-01T09:01:35.740Z,3216.00
2018-12-01T09:02:35.360Z,3292.00
2018-12-01T09:03:35.397Z,3280.00
2018-12-01T09:04:35.368Z,3248.00
2018-12-01T09:05:35.394Z,3336.00
2018-12-01T09:06:35.503Z,3340.00
2018-12-01T09:07:36.091Z,3508.00
2018-12-01T09:08:35.308Z,3540.00
2018-12-01T09:09:35.257Z,3380.00
2018-12-01T09:10:35.291Z,3388.00
2018-12-01T09:11:35.424Z,3284.00
2018-12-01T09:12:35.595Z,3384.00
2018-12-01T09:13:35.817Z,3116.00
2018-12-01T09:14:35.624Z,2856.00
2018-12-01T09:15:37.004Z,3248.00
2018-12-01T09:16:35.215Z,2892.00
2018-12-01T09:17:35.132Z,2880.00
2018-12-01T09:18:35.122Z,2584.00
2018-12-01T09:19:35.629Z,2888.00
2018-12-01T09:20:36.042Z,3244.00
2018-12-01T09:21:35.498Z,4040.00
2018-12-01T09:22:35.262Z,4496.00
2018-12-01T09:23:35.154Z,5220.00
2018-12-01T09:24:35.074Z,5800.00
2018-12-01T09:25:36.167Z,5352.00
2018-12-01T09:26:35.858Z,4372.00
2018-12-01T09:27:36.754Z,3760.00
2018-12-01T09:28:35.089Z,4000.00
2018-12-01T09:29:35.999Z,4188.00
2018-12-01T09:30:35.049Z,3548.00
2018-12-01T09:31:35.107Z,3008.00
2018-12-01T09:32:35.102Z,2616.00
2018-12-01T09:33:34.984Z,2208.00
2018-12-01T09:34:35.453Z,2016.00
2018-12-01T09:35:35.008Z,1928.00
2018-12-01T09:36:35.164Z,1864.00
2018-12-01T09:37:35.478Z,2068.00
2018-12-01T09:38:35.020Z,2632.00
2018-12-01T09:39:35.088Z,2524.00
2018-12-01T09:40:35.092Z,2384.00
2018-12-01T09:41:35.328Z,2140.00
2018-12-01T09:42:35.754Z,2568.00
2018-12-01T09:43:35.370Z,3060.00
2018-12-01T09:44:37.779Z,4180.00
2018-12-01T09:45:35.861Z,4664.00
2018-12-01T09:46:35.763Z,4824.00
2018-12-01T09:47:37.254Z,4224.00
2018-12-01T09:48:35.482Z,2544.00
2018-12-01T09:49:35.892Z,2392.00
2018-12-01T09:50:36.611Z,2484.00
2018-12-01T09:51:47.874Z,2448.00
2018-12-01T09:52:35.404Z,2520.00
2018-12-01T09:53:34.757Z,2676.00
2018-12-01T09:54:37.851Z,2476.00
2018-12-01T09:55:39.830Z,2744.00
2018-12-01T09:56:42.583Z,3180.00
2018-12-01T09:57:36.312Z,3128.00
2018-12-01T09:58:35.397Z,3392.00
2018-12-01T09:59:34.700Z,4108.00
2018-12-01T10:00:35.447Z,4536.00
2018-12-01T10:01:37.328Z,4808.00
2018-12-01T10:02:37.582Z,4788.00
2018-12-01T10:04:51.221Z,5164.00
2018-12-01T10:05:50.211Z,5672.00
2018-12-01T10:06:50.251Z,4120.00
2018-12-01T10:07:50.157Z,2596.00
2018-12-01T10:08:50.201Z,3136.00
2018-12-01T10:09:50.118Z,4692.00
2018-12-01T10:10:51.563Z,6052.00
2018-12-01T10:11:50.542Z,6660.00
2018-12-01T10:12:50.057Z,6688.00
2018-12-01T10:13:50.905Z,6472.00
2018-12-01T10:15:05.587Z,7156.00
2018-12-01T10:15:50.929Z,7616.00
2018-12-01T10:16:52.179Z,10160.00
2018-12-01T10:17:50.351Z,9956.00
2018-12-01T10:18:58.313Z,10284.00
2018-12-01T10:19:50.590Z,11916.00
2018-12-01T10:20:52.859Z,10968.00
2018-12-01T10:21:50.794Z,8888.00
2018-12-01T10:22:50.511Z,8632.00
2018-12-01T10:25:11.987Z,6700.00
2018-12-01T10:26:11.551Z,6404.00
2018-12-01T10:27:11.642Z,5280.00
2018-12-01T10:28:11.563Z,5976.00
2018-12-01T10:29:11.602Z,7400.00
2018-12-01T10:30:11.490Z,7472.00
2018-12-01T10:31:11.839Z,7172.00
2018-12-01T10:32:11.644Z,6736.00
2018-12-01T10:33:11.479Z,6136.00
2018-12-01T10:34:11.457Z,5960.00
2018-12-01T10:35:11.548Z,4992.00
2018-12-01T10:36:11.503Z,5692.00
2018-12-01T10:37:11.991Z,6076.00
2018-12-01T10:38:11.408Z,6320.00
2018-12-01T10:39:11.392Z,7412.00
2018-12-01T10:40:11.396Z,6600.00
2018-12-01T10:41:11.495Z,8240.00
2018-12-01T10:42:11.320Z,6264.00
2018-12-01T10:43:11.704Z,5852.00
2018-12-01T10:44:11.791Z,6576.00
2018-12-01T10:45:11.325Z,7092.00
2018-12-01T10:46:11.832Z,10784.00
2018-12-01T10:47:11.523Z,10672.00
2018-12-01T10:48:11.332Z,8720.00
2018-12-01T10:49:11.514Z,7460.00
2018-12-01T10:50:11.243Z,9036.00
2018-12-01T10:51:11.302Z,7904.00
2018-12-01T10:52:30.118Z,6948.00
2018-12-01T10:53:11.248Z,7356.00
2018-12-01T10:54:11.211Z,7032.00
2018-12-01T10:55:11.320Z,6624.00
2018-12-01T10:56:11.177Z,6084.00
2018-12-01T10:57:11.367Z,5652.00
2018-12-01T10:58:11.186Z,5248.00
2018-12-01T10:59:11.574Z,4924.00
2018-12-01T11:00:11.166Z,4664.00
2018-12-01T11:01:11.512Z,4860.00
2018-12-01T11:02:11.127Z,4816.00
2018-12-01T11:03:11.099Z,4704.00
2018-12-01T11:04:11.103Z,5368.00
2018-12-01T11:05:11.126Z,6164.00
2018-12-01T11:06:11.077Z,6940.00
2018-12-01T11:07:12.042Z,6168.00
2018-12-01T11:08:11.131Z,6612.00
2018-12-01T11:09:11.072Z,6564.00
2018-12-01T11:10:11.034Z,6996.00
2018-12-01T11:11:11.624Z,7128.00
2018-12-01T11:12:11.052Z,7296.00
2018-12-01T11:13:11.259Z,7140.00
2018-12-01T11:14:10.989Z,7616.00
2018-12-01T11:15:10.984Z,7288.00
2018-12-01T11:16:11.922Z,6316.00
2018-12-01T11:17:10.998Z,6888.00
2018-12-01T11:18:10.942Z,7260.00
2018-12-01T11:19:11.917Z,7676.00
2018-12-01T11:20:11.911Z,7564.00
2018-12-01T11:21:10.920Z,6248.00
2018-12-01T11:22:10.916Z,6472.00
2018-12-01T11:23:10.905Z,10276.00
2018-12-01T11:24:10.909Z,9184.00
2018-12-01T11:25:11.121Z,8912.00
2018-12-01T11:26:10.897Z,8208.00
2018-12-01T11:27:10.854Z,6592.00
2018-12-01T11:28:10.841Z,8332.00
2018-12-01T11:29:11.209Z,9584.00
2018-12-01T11:30:10.962Z,8740.00
2018-12-01T11:31:11.861Z,8424.00
2018-12-01T11:32:10.800Z,6112.00
2018-12-01T11:33:10.815Z,5072.00
2018-12-01T11:34:10.821Z,8164.00
2018-12-01T11:35:10.772Z,6040.00
2018-12-01T11:36:11.227Z,3400.00
2018-12-01T11:37:10.971Z,5316.00
2018-12-01T11:38:10.733Z,7024.00
2018-12-01T11:39:10.771Z,8648.00
2018-12-01T11:40:10.731Z,6632.00
2018-12-01T11:41:10.713Z,18752.00
2018-12-01T11:42:10.702Z,6892.00
2018-12-01T11:43:11.106Z,7592.00
2018-12-01T11:44:10.678Z,7980.00
2018-12-01T11:45:10.670Z,16068.00
2018-12-01T11:46:10.646Z,36544.00
2018-12-01T11:47:10.650Z,6700.00
2018-12-01T11:48:10.678Z,3620.00
2018-12-01T11:49:10.896Z,6008.00
2018-12-01T11:50:10.895Z,7920.00
2018-12-01T11:51:10.598Z,8372.00
2018-12-01T11:52:10.587Z,73920.00
2018-12-01T11:53:10.603Z,63872.00
2018-12-01T11:54:10.622Z,48160.00
2018-12-01T11:55:10.735Z,7712.00
2018-12-01T11:56:10.593Z,42176.00
2018-12-01T11:57:10.852Z,16200.00
2018-12-01T11:58:10.619Z,20448.00
2018-12-01T11:59:10.510Z,66496.00
2018-12-01T12:00:10.505Z,39488.00
2018-12-01T12:01:10.866Z,72032.00
2018-12-01T12:02:10.548Z,7544.00
2018-12-01T12:03:10.622Z,4804.00
2018-12-01T12:04:11.116Z,54624.00
2018-12-01T12:05:10.672Z,9212.00
2018-12-01T12:06:10.691Z,36672.00
2018-12-01T12:07:10.595Z,12548.00
2018-12-01T12:08:10.526Z,8868.00
2018-12-01T12:09:10.404Z,7488.00
2018-12-01T12:10:11.408Z,27488.00
2018-12-01T12:11:10.979Z,70880.00
2018-12-01T12:12:10.592Z,77440.00
2018-12-01T12:13:10.877Z,68448.00
2018-12-01T12:14:10.408Z,28448.00
2018-12-01T12:15:10.410Z,6376.00
2018-12-01T12:16:10.410Z,7232.00
2018-12-01T12:17:10.344Z,33280.00
2018-12-01T12:18:10.646Z,7760.00
2018-12-01T12:19:10.693Z,8448.00
2018-12-01T12:20:10.343Z,6676.00
2018-12-01T12:21:10.920Z,4920.00
2018-12-01T12:22:10.270Z,4272.00
2018-12-01T12:23:10.306Z,3940.00
2018-12-01T12:24:10.259Z,3024.00
2018-12-01T12:25:10.710Z,3124.00
2018-12-01T12:26:10.382Z,3856.00
2018-12-01T12:27:10.221Z,4020.00
2018-12-01T12:28:10.211Z,3476.00
2018-12-01T12:29:10.192Z,3056.00
2018-12-01T12:30:10.264Z,2564.00
2018-12-01T12:31:12.168Z,2740.00
2018-12-01T12:32:11.486Z,2924.00
2018-12-01T12:33:10.157Z,2844.00
2018-12-01T12:34:10.160Z,3720.00
2018-12-01T12:35:10.146Z,4148.00
2018-12-01T12:36:10.125Z,4672.00
2018-12-01T12:37:10.400Z,4592.00